< < Back
Terminal Aerodrome Forecast


Current Version              Previous Versions:   1  2  3  4  5  6  7  8  9  

Terminal Aerodrome Forecast

698
FTUS44 KMRX 242358 AAA
TAFCHA
TAF AMD
KCHA 242358Z 2500/2524 28008KT P6SM VCTS SCT050CB BKN250
     FM250100 32007KT P6SM BKN250
     FM250300 00000KT P6SM SCT250
     FM250900 00000KT 5SM BR SKC
     FM251300 VRB03KT P6SM SCT250
     FM251800 34006KT P6SM BKN250=

Latest METAR

619
SAUS80 KWBC 250400 RRF
MTRCHA
METAR KCHA 250453Z AUTO 00000KT 10SM FEW039 26/22 A3007 RMK AO2 SLP171
T02610222 403500211


USA.gov is the U.S. government's official web portal to all federal, state and local government web resources and services.